sensor_id;sensor_type;location;lat;lon;timestamp;P1;durP1;ratioP1;P2;durP2;ratioP2
5054;SDS011;13829;48.990;8.346;2023-06-10T00:00:39;9.70;;;8.70;;
5054;SDS011;13829;48.990;8.346;2023-06-10T00:03:07;9.95;;;9.02;;
5054;SDS011;13829;48.990;8.346;2023-06-10T00:05:34;8.55;;;7.75;;
5054;SDS011;13829;48.990;8.346;2023-06-10T00:08:05;11.35;;;9.02;;
5054;SDS011;13829;48.990;8.346;2023-06-10T00:10:33;11.57;;;9.35;;
5054;SDS011;13829;48.990;8.346;2023-06-10T00:13:01;10.13;;;8.50;;
5054;SDS011;13829;48.990;8.346;2023-06-10T00:15:29;9.83;;;8.93;;
5054;SDS011;13829;48.990;8.346;2023-06-10T00:17:56;10.10;;;9.15;;
5054;SDS011;13829;48.990;8.346;2023-06-10T00:20:23;9.73;;;8.87;;
5054;SDS011;13829;48.990;8.346;2023-06-10T00:22:51;8.90;;;8.07;;
5054;SDS011;13829;48.990;8.346;2023-06-10T00:25:19;10.93;;;9.00;;
5054;SDS011;13829;48.990;8.346;2023-06-10T00:27:46;9.88;;;8.52;;
5054;SDS011;13829;48.990;8.346;2023-06-10T00:30:13;9.98;;;8.35;;
5054;SDS011;13829;48.990;8.346;2023-06-10T00:32:40;8.57;;;7.88;;
5054;SDS011;13829;48.990;8.346;2023-06-10T00:35:07;10.32;;;9.32;;
5054;SDS011;13829;48.990;8.346;2023-06-10T00:37:35;9.52;;;8.57;;
5054;SDS011;13829;48.990;8.346;2023-06-10T00:40:02;8.88;;;8.07;;
5054;SDS011;13829;48.990;8.346;2023-06-10T00:42:31;9.82;;;8.15;;
5054;SDS011;13829;48.990;8.346;2023-06-10T00:44:58;9.02;;;8.15;;
5054;SDS011;13829;48.990;8.346;2023-06-10T00:47:25;11.23;;;8.60;;
5054;SDS011;13829;48.990;8.346;2023-06-10T00:49:53;9.27;;;8.40;;
5054;SDS011;13829;48.990;8.346;2023-06-10T00:52:21;10.43;;;8.43;;
5054;SDS011;13829;48.990;8.346;2023-06-10T00:54:53;8.90;;;8.00;;
5054;SDS011;13829;48.990;8.346;2023-06-10T00:57:20;9.10;;;8.20;;
5054;SDS011;13829;48.990;8.346;2023-06-10T00:59:49;9.38;;;8.57;;
5054;SDS011;13829;48.990;8.346;2023-06-10T01:02:17;9.18;;;8.38;;
5054;SDS011;13829;48.990;8.346;2023-06-10T01:04:44;9.55;;;8.65;;
5054;SDS011;13829;48.990;8.346;2023-06-10T01:07:15;10.38;;;9.35;;
5054;SDS011;13829;48.990;8.346;2023-06-10T01:09:53;9.07;;;8.15;;
5054;SDS011;13829;48.990;8.346;2023-06-10T01:12:30;10.35;;;9.32;;
5054;SDS011;13829;48.990;8.346;2023-06-10T01:15:06;10.07;;;9.10;;
5054;SDS011;13829;48.990;8.346;2023-06-10T01:17:36;10.07;;;9.07;;
5054;SDS011;13829;48.990;8.346;2023-06-10T01:20:20;9.50;;;8.70;;
5054;SDS011;13829;48.990;8.346;2023-06-10T01:22:49;10.30;;;9.27;;
5054;SDS011;13829;48.990;8.346;2023-06-10T01:25:19;9.50;;;8.57;;
5054;SDS011;13829;48.990;8.346;2023-06-10T01:27:52;10.88;;;8.88;;
5054;SDS011;13829;48.990;8.346;2023-06-10T01:30:27;10.32;;;9.32;;
5054;SDS011;13829;48.990;8.346;2023-06-10T01:33:02;10.13;;;9.20;;
5054;SDS011;13829;48.990;8.346;2023-06-10T01:35:32;10.13;;;8.33;;
5054;SDS011;13829;48.990;8.346;2023-06-10T01:38:04;10.20;;;9.30;;
5054;SDS011;13829;48.990;8.346;2023-06-10T01:40:33;9.63;;;8.83;;
5054;SDS011;13829;48.990;8.346;2023-06-10T01:43:01;9.67;;;8.67;;
5054;SDS011;13829;48.990;8.346;2023-06-10T01:45:28;10.27;;;9.30;;
5054;SDS011;13829;48.990;8.346;2023-06-10T01:47:55;10.30;;;9.27;;
5054;SDS011;13829;48.990;8.346;2023-06-10T01:50:22;9.73;;;8.57;;
5054;SDS011;13829;48.990;8.346;2023-06-10T01:52:49;10.02;;;8.57;;
5054;SDS011;13829;48.990;8.346;2023-06-10T01:55:18;9.77;;;8.68;;
5054;SDS011;13829;48.990;8.346;2023-06-10T01:57:45;9.80;;;8.80;;
5054;SDS011;13829;48.990;8.346;2023-06-10T02:00:12;9.87;;;8.87;;
5054;SDS011;13829;48.990;8.346;2023-06-10T02:02:41;12.40;;;9.17;;
5054;SDS011;13829;48.990;8.346;2023-06-10T02:05:08;11.37;;;9.17;;
5054;SDS011;13829;48.990;8.346;2023-06-10T02:07:35;19.97;;;10.80;;
5054;SDS011;13829;48.990;8.346;2023-06-10T02:10:03;18.15;;;10.32;;
5054;SDS011;13829;48.990;8.346;2023-06-10T02:12:32;19.10;;;10.87;;
5054;SDS011;13829;48.990;8.346;2023-06-10T02:14:59;12.17;;;10.57;;
5054;SDS011;13829;48.990;8.346;2023-06-10T02:17:26;14.47;;;10.07;;
5054;SDS011;13829;48.990;8.346;2023-06-10T02:19:53;9.67;;;8.77;;
5054;SDS011;13829;48.990;8.346;2023-06-10T02:22:22;9.50;;;8.60;;
5054;SDS011;13829;48.990;8.346;2023-06-10T02:24:50;10.03;;;9.03;;
5054;SDS011;13829;48.990;8.346;2023-06-10T02:27:17;9.57;;;8.67;;
5054;SDS011;13829;48.990;8.346;2023-06-10T02:29:46;10.33;;;9.33;;
5054;SDS011;13829;48.990;8.346;2023-06-10T02:32:13;10.03;;;9.13;;
5054;SDS011;13829;48.990;8.346;2023-06-10T02:34:40;11.37;;;10.03;;
5054;SDS011;13829;48.990;8.346;2023-06-10T02:37:08;11.20;;;10.10;;
5054;SDS011;13829;48.990;8.346;2023-06-10T02:39:35;10.37;;;9.43;;
5054;SDS011;13829;48.990;8.346;2023-06-10T02:42:03;10.40;;;9.43;;
5054;SDS011;13829;48.990;8.346;2023-06-10T02:44:31;10.93;;;9.77;;
5054;SDS011;13829;48.990;8.346;2023-06-10T02:46:59;10.73;;;9.63;;
5054;SDS011;13829;48.990;8.346;2023-06-10T02:49:26;10.67;;;9.67;;
5054;SDS011;13829;48.990;8.346;2023-06-10T02:51:53;12.47;;;9.20;;
5054;SDS011;13829;48.990;8.346;2023-06-10T02:54:21;10.23;;;9.23;;
5054;SDS011;13829;48.990;8.346;2023-06-10T02:56:49;10.80;;;9.70;;
5054;SDS011;13829;48.990;8.346;2023-06-10T02:59:17;10.20;;;9.23;;
5054;SDS011;13829;48.990;8.346;2023-06-10T03:01:45;9.90;;;8.97;;
5054;SDS011;13829;48.990;8.346;2023-06-10T03:04:13;9.67;;;8.77;;
5054;SDS011;13829;48.990;8.346;2023-06-10T03:06:40;10.30;;;9.40;;
5054;SDS011;13829;48.990;8.346;2023-06-10T03:09:07;11.37;;;9.27;;
5054;SDS011;13829;48.990;8.346;2023-06-10T03:11:36;10.30;;;9.20;;
5054;SDS011;13829;48.990;8.346;2023-06-10T03:14:03;11.40;;;10.30;;
5054;SDS011;13829;48.990;8.346;2023-06-10T03:16:30;10.43;;;9.53;;
5054;SDS011;13829;48.990;8.346;2023-06-10T03:18:57;11.10;;;10.00;;
5054;SDS011;13829;48.990;8.346;2023-06-10T03:21:25;15.50;;;9.50;;
5054;SDS011;13829;48.990;8.346;2023-06-10T03:23:52;11.37;;;10.27;;
5054;SDS011;13829;48.990;8.346;2023-06-10T03:26:20;10.63;;;9.73;;
5054;SDS011;13829;48.990;8.346;2023-06-10T03:28:47;10.83;;;9.90;;
5054;SDS011;13829;48.990;8.346;2023-06-10T03:31:14;12.93;;;10.27;;
5054;SDS011;13829;48.990;8.346;2023-06-10T03:33:42;11.50;;;10.40;;
5054;SDS011;13829;48.990;8.346;2023-06-10T03:36:09;11.07;;;9.90;;
5054;SDS011;13829;48.990;8.346;2023-06-10T03:38:38;10.27;;;9.20;;
5054;SDS011;13829;48.990;8.346;2023-06-10T03:41:05;10.57;;;9.40;;
5054;SDS011;13829;48.990;8.346;2023-06-10T03:43:32;11.17;;;10.07;;
5054;SDS011;13829;48.990;8.346;2023-06-10T03:45:58;10.63;;;9.63;;
5054;SDS011;13829;48.990;8.346;2023-06-10T03:48:25;12.00;;;10.30;;
5054;SDS011;13829;48.990;8.346;2023-06-10T03:50:52;10.57;;;9.60;;
5054;SDS011;13829;48.990;8.346;2023-06-10T03:53:19;10.60;;;9.50;;
5054;SDS011;13829;48.990;8.346;2023-06-10T03:55:48;11.73;;;9.93;;
5054;SDS011;13829;48.990;8.346;2023-06-10T03:58:15;11.00;;;9.97;;
5054;SDS011;13829;48.990;8.346;2023-06-10T04:00:43;10.27;;;9.17;;
5054;SDS011;13829;48.990;8.346;2023-06-10T04:03:10;10.47;;;9.47;;
5054;SDS011;13829;48.990;8.346;2023-06-10T04:05:39;10.03;;;9.03;;
5054;SDS011;13829;48.990;8.346;2023-06-10T04:08:07;10.70;;;9.60;;
5054;SDS011;13829;48.990;8.346;2023-06-10T04:10:34;10.57;;;9.37;;
5054;SDS011;13829;48.990;8.346;2023-06-10T04:13:03;11.33;;;9.57;;
5054;SDS011;13829;48.990;8.346;2023-06-10T04:15:30;9.83;;;8.87;;
5054;SDS011;13829;48.990;8.346;2023-06-10T04:17:58;10.17;;;9.17;;
5054;SDS011;13829;48.990;8.346;2023-06-10T04:20:26;10.40;;;9.37;;
5054;SDS011;13829;48.990;8.346;2023-06-10T04:22:53;10.20;;;9.20;;
5054;SDS011;13829;48.990;8.346;2023-06-10T04:25:20;9.50;;;8.60;;
5054;SDS011;13829;48.990;8.346;2023-06-10T04:27:48;10.00;;;9.00;;
5054;SDS011;13829;48.990;8.346;2023-06-10T04:30:16;9.07;;;8.20;;
5054;SDS011;13829;48.990;8.346;2023-06-10T04:32:43;9.20;;;8.40;;
5054;SDS011;13829;48.990;8.346;2023-06-10T04:35:11;9.83;;;9.00;;
5054;SDS011;13829;48.990;8.346;2023-06-10T04:37:39;9.87;;;8.40;;
5054;SDS011;13829;48.990;8.346;2023-06-10T04:40:06;9.50;;;8.60;;
5054;SDS011;13829;48.990;8.346;2023-06-10T04:42:35;8.90;;;8.00;;
5054;SDS011;13829;48.990;8.346;2023-06-10T04:45:03;10.60;;;9.57;;
5054;SDS011;13829;48.990;8.346;2023-06-10T04:47:33;8.48;;;7.78;;
5054;SDS011;13829;48.990;8.346;2023-06-10T04:50:00;8.83;;;8.00;;
5054;SDS011;13829;48.990;8.346;2023-06-10T04:52:28;9.63;;;8.63;;
5054;SDS011;13829;48.990;8.346;2023-06-10T04:54:56;9.93;;;9.05;;
5054;SDS011;13829;48.990;8.346;2023-06-10T04:57:24;8.77;;;7.97;;
5054;SDS011;13829;48.990;8.346;2023-06-10T04:59:51;8.87;;;8.07;;
5054;SDS011;13829;48.990;8.346;2023-06-10T05:02:18;9.50;;;8.60;;
5054;SDS011;13829;48.990;8.346;2023-06-10T05:04:46;8.48;;;7.78;;
5054;SDS011;13829;48.990;8.346;2023-06-10T05:07:13;8.67;;;7.87;;
5054;SDS011;13829;48.990;8.346;2023-06-10T05:09:40;9.07;;;8.10;;
5054;SDS011;13829;48.990;8.346;2023-06-10T05:12:08;8.27;;;7.53;;
5054;SDS011;13829;48.990;8.346;2023-06-10T05:14:35;8.63;;;7.82;;
5054;SDS011;13829;48.990;8.346;2023-06-10T05:17:03;9.18;;;8.27;;
5054;SDS011;13829;48.990;8.346;2023-06-10T05:19:31;8.68;;;7.78;;
5054;SDS011;13829;48.990;8.346;2023-06-10T05:22:00;8.00;;;7.13;;
5054;SDS011;13829;48.990;8.346;2023-06-10T05:24:28;8.37;;;7.57;;
5054;SDS011;13829;48.990;8.346;2023-06-10T05:26:55;8.55;;;7.75;;
5054;SDS011;13829;48.990;8.346;2023-06-10T05:29:22;8.63;;;7.75;;
5054;SDS011;13829;48.990;8.346;2023-06-10T05:31:48;8.43;;;7.38;;
5054;SDS011;13829;48.990;8.346;2023-06-10T05:34:15;8.18;;;7.38;;
5054;SDS011;13829;48.990;8.346;2023-06-10T05:36:43;7.32;;;6.63;;
5054;SDS011;13829;48.990;8.346;2023-06-10T05:39:11;9.48;;;7.10;;
5054;SDS011;13829;48.990;8.346;2023-06-10T05:41:38;7.72;;;6.95;;
5054;SDS011;13829;48.990;8.346;2023-06-10T05:44:05;8.05;;;7.22;;
5054;SDS011;13829;48.990;8.346;2023-06-10T05:46:32;8.00;;;7.30;;
5054;SDS011;13829;48.990;8.346;2023-06-10T05:48:59;7.95;;;7.15;;
5054;SDS011;13829;48.990;8.346;2023-06-10T05:51:26;8.27;;;7.47;;
5054;SDS011;13829;48.990;8.346;2023-06-10T05:53:53;8.15;;;7.20;;
5054;SDS011;13829;48.990;8.346;2023-06-10T05:56:21;8.00;;;7.22;;
5054;SDS011;13829;48.990;8.346;2023-06-10T05:58:50;8.45;;;7.10;;
5054;SDS011;13829;48.990;8.346;2023-06-10T06:01:17;7.80;;;7.00;;
5054;SDS011;13829;48.990;8.346;2023-06-10T06:03:44;7.07;;;6.35;;
5054;SDS011;13829;48.990;8.346;2023-06-10T06:06:11;7.60;;;6.90;;
5054;SDS011;13829;48.990;8.346;2023-06-10T06:08:38;8.07;;;7.28;;
5054;SDS011;13829;48.990;8.346;2023-06-10T06:11:05;7.35;;;6.65;;
5054;SDS011;13829;48.990;8.346;2023-06-10T06:13:33;7.85;;;6.57;;
5054;SDS011;13829;48.990;8.346;2023-06-10T06:16:00;6.47;;;5.82;;
5054;SDS011;13829;48.990;8.346;2023-06-10T06:18:27;6.85;;;6.22;;
5054;SDS011;13829;48.990;8.346;2023-06-10T06:20:54;6.78;;;6.07;;
5054;SDS011;13829;48.990;8.346;2023-06-10T06:23:21;6.97;;;6.35;;
5054;SDS011;13829;48.990;8.346;2023-06-10T06:25:48;7.47;;;5.55;;
5054;SDS011;13829;48.990;8.346;2023-06-10T06:28:15;6.10;;;5.50;;
5054;SDS011;13829;48.990;8.346;2023-06-10T06:30:44;6.40;;;5.80;;
5054;SDS011;13829;48.990;8.346;2023-06-10T06:33:11;5.90;;;5.40;;
5054;SDS011;13829;48.990;8.346;2023-06-10T06:35:39;5.90;;;5.43;;
5054;SDS011;13829;48.990;8.346;2023-06-10T06:38:06;5.85;;;5.43;;
5054;SDS011;13829;48.990;8.346;2023-06-10T06:40:33;5.88;;;5.38;;
5054;SDS011;13829;48.990;8.346;2023-06-10T06:43:00;6.50;;;5.90;;
5054;SDS011;13829;48.990;8.346;2023-06-10T06:45:27;5.78;;;4.93;;
5054;SDS011;13829;48.990;8.346;2023-06-10T06:47:56;5.55;;;4.97;;
5054;SDS011;13829;48.990;8.346;2023-06-10T06:50:22;6.07;;;5.47;;
5054;SDS011;13829;48.990;8.346;2023-06-10T06:52:49;6.25;;;5.65;;
5054;SDS011;13829;48.990;8.346;2023-06-10T06:55:16;6.05;;;5.07;;
5054;SDS011;13829;48.990;8.346;2023-06-10T06:57:43;5.07;;;4.50;;
5054;SDS011;13829;48.990;8.346;2023-06-10T07:00:10;5.20;;;4.78;;
5054;SDS011;13829;48.990;8.346;2023-06-10T07:02:38;6.47;;;4.97;;
5054;SDS011;13829;48.990;8.346;2023-06-10T07:05:07;5.82;;;5.32;;
5054;SDS011;13829;48.990;8.346;2023-06-10T07:07:34;5.95;;;5.15;;
5054;SDS011;13829;48.990;8.346;2023-06-10T07:10:01;5.15;;;4.70;;
5054;SDS011;13829;48.990;8.346;2023-06-10T07:12:28;5.07;;;4.57;;
5054;SDS011;13829;48.990;8.346;2023-06-10T07:14:55;5.20;;;4.70;;
5054;SDS011;13829;48.990;8.346;2023-06-10T07:17:22;5.40;;;5.00;;
5054;SDS011;13829;48.990;8.346;2023-06-10T07:19:49;5.50;;;5.00;;
5054;SDS011;13829;48.990;8.346;2023-06-10T07:22:18;5.63;;;5.05;;
5054;SDS011;13829;48.990;8.346;2023-06-10T07:24:45;5.60;;;5.10;;
5054;SDS011;13829;48.990;8.346;2023-06-10T07:27:12;8.35;;;5.00;;
5054;SDS011;13829;48.990;8.346;2023-06-10T07:29:39;5.88;;;4.97;;
5054;SDS011;13829;48.990;8.346;2023-06-10T07:32:06;5.75;;;5.25;;
5054;SDS011;13829;48.990;8.346;2023-06-10T07:34:34;7.25;;;5.22;;
5054;SDS011;13829;48.990;8.346;2023-06-10T07:37:01;6.10;;;5.45;;
5054;SDS011;13829;48.990;8.346;2023-06-10T07:39:29;7.50;;;5.43;;
5054;SDS011;13829;48.990;8.346;2023-06-10T07:41:56;6.32;;;5.45;;
5054;SDS011;13829;48.990;8.346;2023-06-10T07:44:23;6.30;;;5.70;;
5054;SDS011;13829;48.990;8.346;2023-06-10T07:46:50;6.45;;;5.68;;
5054;SDS011;13829;48.990;8.346;2023-06-10T07:49:17;6.40;;;5.13;;
5054;SDS011;13829;48.990;8.346;2023-06-10T07:51:44;5.75;;;5.25;;
5054;SDS011;13829;48.990;8.346;2023-06-10T07:54:11;5.75;;;5.18;;
5054;SDS011;13829;48.990;8.346;2023-06-10T07:56:40;5.60;;;5.10;;
5054;SDS011;13829;48.990;8.346;2023-06-10T07:59:06;6.18;;;5.60;;
5054;SDS011;13829;48.990;8.346;2023-06-10T08:01:33;5.90;;;5.22;;
5054;SDS011;13829;48.990;8.346;2023-06-10T08:04:03;5.75;;;5.13;;
5054;SDS011;13829;48.990;8.346;2023-06-10T08:06:30;6.18;;;5.57;;
5054;SDS011;13829;48.990;8.346;2023-06-10T08:08:57;5.32;;;4.93;;
5054;SDS011;13829;48.990;8.346;2023-06-10T08:11:31;5.78;;;5.28;;
5054;SDS011;13829;48.990;8.346;2023-06-10T08:13:59;5.95;;;5.45;;
5054;SDS011;13829;48.990;8.346;2023-06-10T08:16:26;5.32;;;4.93;;
5054;SDS011;13829;48.990;8.346;2023-06-10T08:18:53;5.70;;;5.15;;
5054;SDS011;13829;48.990;8.346;2023-06-10T08:21:20;5.95;;;5.18;;
5054;SDS011;13829;48.990;8.346;2023-06-10T08:23:47;5.35;;;4.85;;
5054;SDS011;13829;48.990;8.346;2023-06-10T08:26:14;5.38;;;4.65;;
5054;SDS011;13829;48.990;8.346;2023-06-10T08:28:40;5.20;;;4.80;;
5054;SDS011;13829;48.990;8.346;2023-06-10T08:31:09;5.65;;;5.15;;
5054;SDS011;13829;48.990;8.346;2023-06-10T08:33:36;5.38;;;4.97;;
5054;SDS011;13829;48.990;8.346;2023-06-10T08:36:03;5.78;;;4.55;;
5054;SDS011;13829;48.990;8.346;2023-06-10T08:38:30;6.65;;;5.28;;
5054;SDS011;13829;48.990;8.346;2023-06-10T08:40:59;5.13;;;4.72;;
5054;SDS011;13829;48.990;8.346;2023-06-10T08:43:29;5.32;;;4.82;;
5054;SDS011;13829;48.990;8.346;2023-06-10T08:46:05;4.60;;;4.22;;
5054;SDS011;13829;48.990;8.346;2023-06-10T08:48:38;4.03;;;3.72;;
5054;SDS011;13829;48.990;8.346;2023-06-10T08:51:10;5.22;;;4.28;;
5054;SDS011;13829;48.990;8.346;2023-06-10T08:53:38;5.13;;;4.72;;
5054;SDS011;13829;48.990;8.346;2023-06-10T08:56:16;5.25;;;4.75;;
5054;SDS011;13829;48.990;8.346;2023-06-10T08:58:45;4.65;;;4.25;;
5054;SDS011;13829;48.990;8.346;2023-06-10T09:01:15;5.32;;;4.75;;
5054;SDS011;13829;48.990;8.346;2023-06-10T09:03:43;5.82;;;5.32;;
5054;SDS011;13829;48.990;8.346;2023-06-10T09:06:10;7.40;;;5.32;;
5054;SDS011;13829;48.990;8.346;2023-06-10T09:08:37;8.73;;;5.30;;
5054;SDS011;13829;48.990;8.346;2023-06-10T09:11:05;5.53;;;5.07;;
5054;SDS011;13829;48.990;8.346;2023-06-10T09:13:33;6.63;;;4.90;;
5054;SDS011;13829;48.990;8.346;2023-06-10T09:15:59;7.47;;;5.57;;
5054;SDS011;13829;48.990;8.346;2023-06-10T09:18:28;5.90;;;5.40;;
5054;SDS011;13829;48.990;8.346;2023-06-10T09:20:56;5.68;;;5.15;;
5054;SDS011;13829;48.990;8.346;2023-06-10T09:23:23;7.07;;;5.97;;
5054;SDS011;13829;48.990;8.346;2023-06-10T09:25:56;9.43;;;5.47;;
5054;SDS011;13829;48.990;8.346;2023-06-10T09:28:24;9.00;;;5.70;;
5054;SDS011;13829;48.990;8.346;2023-06-10T09:31:02;5.80;;;5.20;;
5054;SDS011;13829;48.990;8.346;2023-06-10T09:33:32;6.28;;;5.78;;
5054;SDS011;13829;48.990;8.346;2023-06-10T09:36:02;6.13;;;5.53;;
5054;SDS011;13829;48.990;8.346;2023-06-10T09:38:30;6.47;;;5.85;;
5054;SDS011;13829;48.990;8.346;2023-06-10T09:40:58;6.18;;;5.60;;
5054;SDS011;13829;48.990;8.346;2023-06-10T09:43:38;6.60;;;6.00;;
5054;SDS011;13829;48.990;8.346;2023-06-10T09:46:16;6.40;;;5.85;;
5054;SDS011;13829;48.990;8.346;2023-06-10T09:48:46;6.05;;;5.45;;
5054;SDS011;13829;48.990;8.346;2023-06-10T09:51:14;5.88;;;5.28;;
5054;SDS011;13829;48.990;8.346;2023-06-10T09:53:42;7.05;;;6.22;;
5054;SDS011;13829;48.990;8.346;2023-06-10T09:56:15;6.25;;;5.72;;
5054;SDS011;13829;48.990;8.346;2023-06-10T09:58:42;6.85;;;6.22;;
5054;SDS011;13829;48.990;8.346;2023-06-10T10:01:11;6.20;;;5.70;;
5054;SDS011;13829;48.990;8.346;2023-06-10T10:03:45;6.75;;;5.72;;
5054;SDS011;13829;48.990;8.346;2023-06-10T10:06:14;7.47;;;6.75;;
5054;SDS011;13829;48.990;8.346;2023-06-10T10:08:43;7.55;;;6.18;;
5054;SDS011;13829;48.990;8.346;2023-06-10T10:11:10;6.05;;;5.55;;
5054;SDS011;13829;48.990;8.346;2023-06-10T10:13:38;8.50;;;6.65;;
5054;SDS011;13829;48.990;8.346;2023-06-10T10:16:09;6.95;;;5.80;;
5054;SDS011;13829;48.990;8.346;2023-06-10T10:18:41;7.20;;;6.60;;
5054;SDS011;13829;48.990;8.346;2023-06-10T10:21:15;6.93;;;6.10;;
5054;SDS011;13829;48.990;8.346;2023-06-10T10:23:52;6.93;;;6.22;;
5054;SDS011;13829;48.990;8.346;2023-06-10T10:26:27;7.18;;;6.47;;
5054;SDS011;13829;48.990;8.346;2023-06-10T10:29:00;7.10;;;6.50;;
5054;SDS011;13829;48.990;8.346;2023-06-10T10:31:36;6.75;;;6.03;;
5054;SDS011;13829;48.990;8.346;2023-06-10T10:34:12;6.95;;;6.38;;
5054;SDS011;13829;48.990;8.346;2023-06-10T10:36:45;6.28;;;5.70;;
5054;SDS011;13829;48.990;8.346;2023-06-10T10:39:13;6.70;;;5.88;;
5054;SDS011;13829;48.990;8.346;2023-06-10T10:41:41;6.93;;;6.22;;
5054;SDS011;13829;48.990;8.346;2023-06-10T10:44:09;9.65;;;6.18;;
5054;SDS011;13829;48.990;8.346;2023-06-10T10:46:43;7.35;;;6.65;;
5054;SDS011;13829;48.990;8.346;2023-06-10T10:49:17;6.72;;;6.13;;
5054;SDS011;13829;48.990;8.346;2023-06-10T10:51:55;6.78;;;6.18;;
5054;SDS011;13829;48.990;8.346;2023-06-10T10:54:29;6.88;;;6.25;;
5054;SDS011;13829;48.990;8.346;2023-06-10T10:57:11;6.78;;;5.82;;
5054;SDS011;13829;48.990;8.346;2023-06-10T10:59:54;7.13;;;6.53;;
5054;SDS011;13829;48.990;8.346;2023-06-10T11:02:34;5.75;;;5.28;;
5054;SDS011;13829;48.990;8.346;2023-06-10T11:05:09;6.03;;;5.43;;
5054;SDS011;13829;48.990;8.346;2023-06-10T11:07:39;6.28;;;5.78;;
5054;SDS011;13829;48.990;8.346;2023-06-10T11:10:07;6.85;;;6.15;;
5054;SDS011;13829;48.990;8.346;2023-06-10T11:12:42;7.03;;;6.38;;
5054;SDS011;13829;48.990;8.346;2023-06-10T11:15:18;6.70;;;6.00;;
5054;SDS011;13829;48.990;8.346;2023-06-10T11:20:50;7.03;;;6.30;;
5054;SDS011;13829;48.990;8.346;2023-06-10T11:23:30;7.03;;;6.43;;
5054;SDS011;13829;48.990;8.346;2023-06-10T11:26:10;7.28;;;5.82;;
5054;SDS011;13829;48.990;8.346;2023-06-10T11:31:30;7.05;;;6.38;;
5054;SDS011;13829;48.990;8.346;2023-06-10T11:34:00;8.35;;;6.30;;
5054;SDS011;13829;48.990;8.346;2023-06-10T11:36:31;6.45;;;5.82;;
5054;SDS011;13829;48.990;8.346;2023-06-10T11:39:00;7.45;;;6.70;;
5054;SDS011;13829;48.990;8.346;2023-06-10T11:41:30;8.00;;;6.88;;
5054;SDS011;13829;48.990;8.346;2023-06-10T11:44:00;8.07;;;6.63;;
5054;SDS011;13829;48.990;8.346;2023-06-10T11:46:30;6.68;;;6.10;;
5054;SDS011;13829;48.990;8.346;2023-06-10T11:48:57;6.43;;;5.82;;
5054;SDS011;13829;48.990;8.346;2023-06-10T11:51:27;6.85;;;6.28;;
5054;SDS011;13829;48.990;8.346;2023-06-10T11:53:58;6.05;;;5.55;;
5054;SDS011;13829;48.990;8.346;2023-06-10T11:56:26;7.53;;;5.60;;
5054;SDS011;13829;48.990;8.346;2023-06-10T11:58:55;8.02;;;6.70;;
5054;SDS011;13829;48.990;8.346;2023-06-10T12:01:29;7.13;;;6.47;;
5054;SDS011;13829;48.990;8.346;2023-06-10T12:03:58;6.50;;;5.35;;
5054;SDS011;13829;48.990;8.346;2023-06-10T12:06:27;6.70;;;5.55;;
5054;SDS011;13829;48.990;8.346;2023-06-10T12:09:06;6.50;;;5.82;;
5054;SDS011;13829;48.990;8.346;2023-06-10T12:11:33;6.22;;;5.63;;
5054;SDS011;13829;48.990;8.346;2023-06-10T12:14:01;6.43;;;5.93;;
5054;SDS011;13829;48.990;8.346;2023-06-10T12:16:28;8.25;;;5.68;;
5054;SDS011;13829;48.990;8.346;2023-06-10T12:19:00;6.28;;;5.78;;
5054;SDS011;13829;48.990;8.346;2023-06-10T12:21:29;7.95;;;6.57;;
5054;SDS011;13829;48.990;8.346;2023-06-10T12:24:03;6.32;;;5.72;;
5054;SDS011;13829;48.990;8.346;2023-06-10T12:26:36;6.38;;;5.78;;
5054;SDS011;13829;48.990;8.346;2023-06-10T12:29:16;5.85;;;5.35;;
5054;SDS011;13829;48.990;8.346;2023-06-10T12:31:52;6.13;;;5.15;;
5054;SDS011;13829;48.990;8.346;2023-06-10T12:34:34;5.40;;;4.90;;
5054;SDS011;13829;48.990;8.346;2023-06-10T12:37:03;5.72;;;5.22;;
5054;SDS011;13829;48.990;8.346;2023-06-10T12:39:34;6.70;;;5.30;;
5054;SDS011;13829;48.990;8.346;2023-06-10T12:42:00;6.15;;;5.55;;
5054;SDS011;13829;48.990;8.346;2023-06-10T12:44:30;5.50;;;5.00;;
5054;SDS011;13829;48.990;8.346;2023-06-10T12:47:01;6.07;;;5.32;;
5054;SDS011;13829;48.990;8.346;2023-06-10T12:49:35;5.68;;;5.18;;
5054;SDS011;13829;48.990;8.346;2023-06-10T12:52:03;5.68;;;5.18;;
5054;SDS011;13829;48.990;8.346;2023-06-10T12:54:31;6.10;;;5.45;;
5054;SDS011;13829;48.990;8.346;2023-06-10T12:57:00;5.50;;;5.00;;
5054;SDS011;13829;48.990;8.346;2023-06-10T12:59:28;6.78;;;5.10;;
5054;SDS011;13829;48.990;8.346;2023-06-10T13:01:57;5.28;;;4.80;;
5054;SDS011;13829;48.990;8.346;2023-06-10T13:04:24;6.00;;;5.22;;
5054;SDS011;13829;48.990;8.346;2023-06-10T13:06:52;5.13;;;4.72;;
5054;SDS011;13829;48.990;8.346;2023-06-10T13:09:18;5.22;;;4.80;;
5054;SDS011;13829;48.990;8.346;2023-06-10T13:11:47;5.00;;;4.50;;
5054;SDS011;13829;48.990;8.346;2023-06-10T13:14:14;5.47;;;5.05;;
5054;SDS011;13829;48.990;8.346;2023-06-10T13:16:41;5.53;;;5.07;;
5054;SDS011;13829;48.990;8.346;2023-06-10T13:19:09;4.80;;;4.40;;
5054;SDS011;13829;48.990;8.346;2023-06-10T13:21:36;7.30;;;4.80;;
5054;SDS011;13829;48.990;8.346;2023-06-10T13:24:03;5.85;;;4.60;;
5054;SDS011;13829;48.990;8.346;2023-06-10T13:26:31;6.00;;;5.40;;
5054;SDS011;13829;48.990;8.346;2023-06-10T13:28:59;7.85;;;5.05;;
5054;SDS011;13829;48.990;8.346;2023-06-10T13:31:26;4.70;;;4.25;;
5054;SDS011;13829;48.990;8.346;2023-06-10T13:33:53;5.32;;;4.82;;
5054;SDS011;13829;48.990;8.346;2023-06-10T13:36:20;5.35;;;4.85;;
5054;SDS011;13829;48.990;8.346;2023-06-10T13:38:47;5.63;;;4.70;;
5054;SDS011;13829;48.990;8.346;2023-06-10T13:41:14;5.50;;;4.90;;
5054;SDS011;13829;48.990;8.346;2023-06-10T13:43:42;5.82;;;5.28;;
5054;SDS011;13829;48.990;8.346;2023-06-10T13:46:10;6.22;;;5.63;;
5054;SDS011;13829;48.990;8.346;2023-06-10T13:48:37;6.60;;;4.63;;
5054;SDS011;13829;48.990;8.346;2023-06-10T13:51:03;6.88;;;4.95;;
5054;SDS011;13829;48.990;8.346;2023-06-10T13:53:31;5.63;;;4.95;;
5054;SDS011;13829;48.990;8.346;2023-06-10T13:55:59;5.70;;;4.75;;
5054;SDS011;13829;48.990;8.346;2023-06-10T13:58:26;5.43;;;4.93;;
5054;SDS011;13829;48.990;8.346;2023-06-10T14:00:53;4.95;;;4.60;;
5054;SDS011;13829;48.990;8.346;2023-06-10T14:03:21;6.07;;;5.40;;
5054;SDS011;13829;48.990;8.346;2023-06-10T14:05:48;8.60;;;5.25;;
5054;SDS011;13829;48.990;8.346;2023-06-10T14:08:15;6.35;;;5.03;;
5054;SDS011;13829;48.990;8.346;2023-06-10T14:10:42;6.80;;;4.95;;
5054;SDS011;13829;48.990;8.346;2023-06-10T14:13:09;5.70;;;5.13;;
5054;SDS011;13829;48.990;8.346;2023-06-10T14:15:36;5.30;;;4.90;;
5054;SDS011;13829;48.990;8.346;2023-06-10T14:18:03;4.60;;;4.30;;
5054;SDS011;13829;48.990;8.346;2023-06-10T14:20:32;5.03;;;4.60;;
5054;SDS011;13829;48.990;8.346;2023-06-10T14:22:59;5.57;;;5.00;;
5054;SDS011;13829;48.990;8.346;2023-06-10T14:25:26;6.07;;;5.45;;
5054;SDS011;13829;48.990;8.346;2023-06-10T14:27:53;5.88;;;5.00;;
5054;SDS011;13829;48.990;8.346;2023-06-10T14:30:20;5.35;;;4.80;;
5054;SDS011;13829;48.990;8.346;2023-06-10T14:32:47;5.53;;;5.03;;
5054;SDS011;13829;48.990;8.346;2023-06-10T14:35:13;5.22;;;4.82;;
5054;SDS011;13829;48.990;8.346;2023-06-10T14:37:42;8.90;;;4.88;;
5054;SDS011;13829;48.990;8.346;2023-06-10T14:40:09;5.57;;;4.97;;
5054;SDS011;13829;48.990;8.346;2023-06-10T14:42:36;5.93;;;5.30;;
5054;SDS011;13829;48.990;8.346;2023-06-10T14:45:04;5.55;;;4.97;;
5054;SDS011;13829;48.990;8.346;2023-06-10T14:47:32;5.00;;;4.60;;
5054;SDS011;13829;48.990;8.346;2023-06-10T14:49:59;5.45;;;4.95;;
5054;SDS011;13829;48.990;8.346;2023-06-10T14:52:26;5.43;;;4.55;;
5054;SDS011;13829;48.990;8.346;2023-06-10T14:54:54;5.75;;;5.18;;
5054;SDS011;13829;48.990;8.346;2023-06-10T14:57:21;6.38;;;5.18;;
5054;SDS011;13829;48.990;8.346;2023-06-10T14:59:48;6.72;;;4.72;;
5054;SDS011;13829;48.990;8.346;2023-06-10T15:02:15;5.05;;;4.55;;
5054;SDS011;13829;48.990;8.346;2023-06-10T15:04:42;4.95;;;4.45;;
5054;SDS011;13829;48.990;8.346;2023-06-10T15:07:09;6.57;;;5.15;;
5054;SDS011;13829;48.990;8.346;2023-06-10T15:09:36;6.45;;;4.82;;
5054;SDS011;13829;48.990;8.346;2023-06-10T15:12:05;4.97;;;4.57;;